Terminal Aerodrome Forecast
Issued by NWS Central Illinois

Home | Current Version | Previous Version | Text Only | Print | Product List | Glossary On
Versions: 1 2 3 4 5 6 7 8 9 10 11 12 13 14 15 16 17 18 19 20 21 22
000
FTUS43 KILX 191726
TAFSPI
TAF
KSPI 191726Z 1918/2018 20017G29KT P6SM -SHRA OVC015
     FM192000 20017G29KT 5SM -SHRA VCTS OVC010CB
     FM200100 19015G23KT 4SM SHRA VCTS OVC008CB WS020/21050KT
     FM201400 19015G27KT 4SM SHRA OVC010=

USA.gov is the U.S. government's official web portal to all federal, state and local government web resources and services.